Main page
METAR-TAF:

METAR-TAF

Airports :

Bournemouth Airport

Bournemouth, England

latitude: 50-47N, longitude: 001-50W, elevation: 11 m

Current weather observation

The report was made 36 minutes ago, at 07:20 UTC
Wind 2 kt from the North/Northwest
Temperature 2°C
Humidity 93%
Pressure 1031 hPa
Visibility 10 km or more
Shallow fog

METAR: EGHH 240720Z 33002KT 9999 MIFG NSC 02/01 Q1031

Time: 07:56 (07:56 UTC)

Forecast

The report was made 1 hour and 28 minutes ago, at 06:28 UTC
Forecast valid from 24 at 06 UTC to 24 at 15 UTC
Wind 5 kt from the North/Northwest
Visibility 10 km or more
Scattered clouds at a height of 3000 ft
Probability 30%
from 24 at 06 UTC to 24 at 09 UTC
Visibility: 8000 m

TAF: EGHH 240628Z 2406/2415 34005KT 9999 SCT030 PROB30 2406/2409 8000

Weather observations and forecasts of more than 4000 airports (METAR and TAF reports).

The available stations are represented by yellow and red dots on the map.

Hover mouse over dot to see the name of the station.

Then click to see weather observations and forecasts.

To change the map : click on the green buttons with a black cross to zoom in, on the green button with a dash to zoom out, or on the green arrows for adjacent maps.


METAR-TAF: